Darstellungsparameter: Aktuell verwendete Einstellungen:
Skalierung der Graphiken ... ?
xyx+y,   Skalierungsfaktor:      Skalierung: Modus: x, Faktor: 1
Darstellungszeitraum ... ?
Vom - - bis: - -   Zeitraum: 23.09.2021 - 24.09.2021
Min/Max/Avg-Anzeige ... ?
Zeige MMA aktuell
Zeige MMA Monat
Zeige MMA alles
Zeige --A aktuell
Zeige --A Monat
Zeige --A alles
Keine MMA-Anzeige
MMA:
Keine MMA-Graphiken
MMA-Basis: 23.09.2021 - 24.09.2021
Quicknavigation für Darstellung... ?
Tage:      1T, 2T, 3T, 5T -1T -2T -3T -5T +1T +2T +3T +5T
Wochen: 1W, 2W, 3W -1W -2W -3W +1W +2W +3W
Monate: 1M, 3M, 6M -1M -3M -6M +1M +3M +6M
Jahre:    1J, 3J, 5J, 10J -1J -3J -5J -10J +1J +3J +5J +10J
Nutze für die Darstellung ... ?
Originaldaten oder Mittelwerte auf ...
Stundenbasis Tagesbasis Wochenbasis
Monatsbasis Jahresbasis      Datenbasis: Original-Daten
Darstellen als:
Statistik (Auto) Statistik J:M      Darstellung:
Zur Graphik,    zurück zur Übersicht aller Sensoren.
 
Tabellarische Datenbersicht: ?
 
Sensor: Nr:Datum:Temp:Abs-Feuchte:Windchill:Wind:
Aussen-T/F 1 23-09-2021 02:00:00 8.9 C 8.32 g/m*3 8.9 C 0 km/h
2 23-09-2021 02:05:00 8.8 C 8.27 g/m*3 8.8 C 0 km/h
3 23-09-2021 02:10:00 8.8 C 8.27 g/m*3 8.8 C 0 km/h
4 23-09-2021 02:15:00 8.7 C 8.22 g/m*3 8.7 C 0 km/h
5 23-09-2021 02:20:00 8.6 C 8.16 g/m*3 8.6 C 0 km/h
6 23-09-2021 02:25:00 8.6 C 8.16 g/m*3 8.6 C 0 km/h
7 23-09-2021 02:30:00 8.6 C 8.16 g/m*3 8.6 C 0 km/h
8 23-09-2021 02:35:00 8.6 C 8.16 g/m*3 8.6 C 0 km/h
9 23-09-2021 02:40:00 8.5 C 8.11 g/m*3 8.5 C 0 km/h
10 23-09-2021 02:45:00 8.4 C 8.06 g/m*3 8.4 C 0 km/h
11 23-09-2021 02:50:00 8.4 C 8.06 g/m*3 8.4 C 3.2 km/h
12 23-09-2021 02:55:00 8.6 C 8.16 g/m*3 8.6 C 0 km/h
13 23-09-2021 03:00:00 8.7 C 8.22 g/m*3 8.7 C 0 km/h
14 23-09-2021 03:05:00 8.7 C 8.22 g/m*3 8.7 C 0 km/h
15 23-09-2021 03:10:00 8.6 C 8.16 g/m*3 8.6 C 0 km/h
16 23-09-2021 03:15:00 8.4 C 8.06 g/m*3 8.4 C 0 km/h
17 23-09-2021 03:20:00 8.3 C 8.01 g/m*3 8.3 C 0 km/h
18 23-09-2021 03:25:00 8.1 C 7.9 g/m*3 8.1 C 1.6 km/h
19 23-09-2021 03:30:00 8 C 7.85 g/m*3 8 C 0 km/h
20 23-09-2021 03:35:00 8 C 7.85 g/m*3 8 C 0 km/h
21 23-09-2021 03:40:00 7.9 C 7.8 g/m*3 7.9 C 0 km/h
22 23-09-2021 03:45:00 7.9 C 7.8 g/m*3 7.9 C 0 km/h
23 23-09-2021 03:50:00 7.9 C 7.8 g/m*3 7.9 C 0 km/h
24 23-09-2021 03:55:00 7.8 C 7.75 g/m*3 7.8 C 0 km/h
25 23-09-2021 04:00:00 7.8 C 7.75 g/m*3 7.8 C 0 km/h
Sensor: Nr:Datum:Temp:Abs-Feuchte:Windchill:Wind:
Aussen-T/F 26 23-09-2021 04:05:00 7.7 C 7.7 g/m*3 7.7 C 0 km/h
27 23-09-2021 04:10:00 7.7 C 7.7 g/m*3 7.7 C 0 km/h
28 23-09-2021 04:15:00 7.7 C 7.7 g/m*3 7.7 C 0 km/h
29 23-09-2021 04:20:00 7.6 C 7.65 g/m*3 7.6 C 0 km/h
30 23-09-2021 04:25:00 7.6 C 7.65 g/m*3 7.6 C 0 km/h
31 23-09-2021 04:30:00 7.5 C 7.6 g/m*3 7.5 C 0 km/h
32 23-09-2021 04:35:00 7.5 C 7.6 g/m*3 7.5 C 0 km/h
33 23-09-2021 04:40:00 7.4 C 7.55 g/m*3 7.4 C 0 km/h
34 23-09-2021 04:45:00 7.4 C 7.55 g/m*3 7.4 C 0 km/h
35 23-09-2021 04:50:00 7.3 C 7.51 g/m*3 7.3 C 0 km/h
36 23-09-2021 04:55:00 7.3 C 7.51 g/m*3 7.3 C 0 km/h
37 23-09-2021 05:00:00 7.2 C 7.46 g/m*3 7.2 C 0 km/h
38 23-09-2021 05:05:00 7.2 C 7.46 g/m*3 7.2 C 0 km/h
39 23-09-2021 05:10:00 7.2 C 7.46 g/m*3 7.2 C 0 km/h
40 23-09-2021 05:15:00 7.2 C 7.46 g/m*3 7.2 C 0 km/h
41 23-09-2021 05:20:00 7.2 C 7.46 g/m*3 7.2 C 0 km/h
42 23-09-2021 05:25:00 7.2 C 7.54 g/m*3 7.2 C 0 km/h
43 23-09-2021 05:30:00 7.3 C 7.58 g/m*3 7.3 C 0 km/h
44 23-09-2021 05:35:00 7.4 C 7.63 g/m*3 7.4 C 0 km/h
45 23-09-2021 05:40:00 7.6 C 7.73 g/m*3 7.6 C 0 km/h
46 23-09-2021 05:45:00 7.7 C 7.78 g/m*3 7.7 C 0 km/h
47 23-09-2021 05:50:00 7.7 C 7.78 g/m*3 7.7 C 0 km/h
48 23-09-2021 05:55:00 7.7 C 7.78 g/m*3 7.7 C 0 km/h
49 23-09-2021 06:00:00 7.7 C 7.78 g/m*3 7.7 C 0 km/h
50 23-09-2021 06:05:00 7.6 C 7.73 g/m*3 7.6 C 1.6 km/h
Sensor: Nr:Datum:Temp:Abs-Feuchte:Windchill:Wind:
Aussen-T/F 51 23-09-2021 06:10:00 7.6 C 7.73 g/m*3 7.6 C 0 km/h
52 23-09-2021 06:15:00 7.6 C 7.73 g/m*3 7.6 C 0 km/h
53 23-09-2021 06:20:00 7.6 C 7.73 g/m*3 7.6 C 0 km/h
54 23-09-2021 06:25:00 7.6 C 7.73 g/m*3 7.6 C 0 km/h
55 23-09-2021 06:30:00 7.4 C 7.63 g/m*3 7.4 C 0 km/h
56 23-09-2021 06:35:00 7.4 C 7.63 g/m*3 7.4 C 0 km/h
57 23-09-2021 06:40:00 7.4 C 7.63 g/m*3 7.4 C 0 km/h
58 23-09-2021 06:45:00 7.4 C 7.63 g/m*3 7.4 C 0 km/h
59 23-09-2021 06:50:00 7.5 C 7.68 g/m*3 7.5 C 0 km/h
60 23-09-2021 06:55:00 7.6 C 7.73 g/m*3 7.6 C 0 km/h
61 23-09-2021 07:00:00 7.5 C 7.68 g/m*3 7.5 C 0 km/h
62 23-09-2021 07:05:00 7.6 C 7.73 g/m*3 7.6 C 0 km/h
63 23-09-2021 07:10:00 7.6 C 7.73 g/m*3 7.6 C 0 km/h
64 23-09-2021 07:15:00 7.7 C 7.78 g/m*3 7.7 C 0 km/h
65 23-09-2021 07:20:00 7.8 C 7.83 g/m*3 7.8 C 0 km/h
66 23-09-2021 07:25:00 7.8 C 7.83 g/m*3 7.8 C 0 km/h
67 23-09-2021 07:30:00 7.9 C 7.89 g/m*3 7.9 C 0 km/h
68 23-09-2021 07:35:00 7.9 C 7.89 g/m*3 7.9 C 0 km/h
69 23-09-2021 07:40:00 8 C 7.94 g/m*3 8 C 0 km/h
70 23-09-2021 07:45:00 8 C 7.94 g/m*3 8 C 0 km/h
71 23-09-2021 07:50:00 8.1 C 7.99 g/m*3 8.1 C 0 km/h
72 23-09-2021 07:55:00 8.1 C 7.99 g/m*3 8.1 C 0 km/h
73 23-09-2021 08:00:00 8.1 C 7.99 g/m*3 8.1 C 0 km/h
74 23-09-2021 08:05:00 8.1 C 7.99 g/m*3 8.1 C 0 km/h
75 23-09-2021 08:10:00 8.2 C 8.04 g/m*3 8.2 C 0 km/h
Sensor: Nr:Datum:Temp:Abs-Feuchte:Windchill:Wind:
Aussen-T/F 76 23-09-2021 08:15:00 8.2 C 8.04 g/m*3 8.2 C 0 km/h
77 23-09-2021 08:20:00 8.3 C 8.09 g/m*3 8.3 C 0 km/h
78 23-09-2021 08:25:00 8.3 C 8.09 g/m*3 8.3 C 0 km/h
79 23-09-2021 08:30:00 8.2 C 8.04 g/m*3 8.2 C 0 km/h
80 23-09-2021 08:35:00 8.2 C 8.04 g/m*3 8.2 C 0 km/h
81 23-09-2021 08:40:00 8.2 C 8.04 g/m*3 8.2 C 0 km/h
82 23-09-2021 08:45:00 8.2 C 8.04 g/m*3 8.2 C 0 km/h
83 23-09-2021 08:50:00 8.3 C 8.09 g/m*3 8.3 C 0 km/h
84 23-09-2021 08:55:00 8.4 C 8.14 g/m*3 8.4 C 0 km/h
85 23-09-2021 09:00:00 8.4 C 8.14 g/m*3 8.4 C 0 km/h
86 23-09-2021 09:05:00 8.4 C 8.14 g/m*3 8.4 C 0 km/h
87 23-09-2021 09:10:00 8.4 C 8.14 g/m*3 8.4 C 0 km/h
88 23-09-2021 09:15:00 8.5 C 8.2 g/m*3 8.5 C 0 km/h
89 23-09-2021 09:20:00 8.6 C 8.25 g/m*3 8.6 C 0 km/h
90 23-09-2021 09:25:00 8.5 C 8.2 g/m*3 8.5 C 0 km/h
91 23-09-2021 09:30:00 8.6 C 8.25 g/m*3 8.6 C 0 km/h
92 23-09-2021 09:35:00 8.6 C 8.25 g/m*3 8.6 C 0 km/h
93 23-09-2021 09:40:00 8.7 C 8.39 g/m*3 8.7 C 0 km/h
94 23-09-2021 09:45:00 8.7 C 8.39 g/m*3 8.7 C 0 km/h
95 23-09-2021 09:50:00 8.8 C 8.44 g/m*3 8.8 C 0 km/h
96 23-09-2021 09:55:00 8.8 C 8.44 g/m*3 8.8 C 0 km/h
97 23-09-2021 10:00:00 8.8 C 8.44 g/m*3 8.8 C 0 km/h
98 23-09-2021 10:05:00 8.9 C 8.5 g/m*3 8.9 C 0 km/h
99 23-09-2021 10:10:00 9 C 8.55 g/m*3 9 C 0 km/h
100 23-09-2021 10:15:00 9.1 C 8.61 g/m*3 9.1 C 0 km/h
Sensor: Nr:Datum:Temp:Abs-Feuchte:Windchill:Wind:
Aussen-T/F 101 23-09-2021 10:20:00 9.1 C 8.61 g/m*3 9.1 C 0 km/h
102 23-09-2021 10:25:00 9.1 C 8.61 g/m*3 9.1 C 0 km/h
103 23-09-2021 10:30:00 9.2 C 8.66 g/m*3 9.2 C 0 km/h
104 23-09-2021 10:35:00 9.2 C 8.66 g/m*3 9.2 C 0 km/h
105 23-09-2021 10:40:00 9.3 C 8.72 g/m*3 9.3 C 0 km/h
106 23-09-2021 10:45:00 9.4 C 8.77 g/m*3 9.4 C 0 km/h
107 23-09-2021 10:50:00 9.6 C 8.89 g/m*3 9.6 C 0 km/h
108 23-09-2021 10:55:00 9.7 C 8.94 g/m*3 9.7 C 0 km/h
109 23-09-2021 11:00:00 9.8 C 9 g/m*3 9.8 C 0 km/h
110 23-09-2021 11:05:00 10 C 9.11 g/m*3 10 C 0 km/h
111 23-09-2021 11:10:00 10.1 C 9.17 g/m*3 10.1 C 0 km/h
112 23-09-2021 11:15:00 10.3 C 9.29 g/m*3 10.3 C 0 km/h
113 23-09-2021 11:20:00 10.4 C 9.35 g/m*3 10.4 C 0 km/h
114 23-09-2021 11:25:00 10.6 C 9.47 g/m*3 10.6 C 0 km/h
115 23-09-2021 11:30:00 10.7 C 9.53 g/m*3 10.7 C 0 km/h
116 23-09-2021 11:35:00 10.8 C 9.59 g/m*3 10.8 C 0 km/h
117 23-09-2021 11:40:00 11 C 9.71 g/m*3 11 C 0 km/h
118 23-09-2021 11:45:00 11.2 C 9.83 g/m*3 11.2 C 0 km/h
119 23-09-2021 11:50:00 11.3 C 9.89 g/m*3 11.3 C 0 km/h
120 23-09-2021 11:55:00 11.6 C 10.08 g/m*3 11.6 C 0 km/h
121 23-09-2021 12:00:00 11.7 C 10.15 g/m*3 11.7 C 0 km/h
122 23-09-2021 12:05:00 12 C 10.34 g/m*3 12 C 0 km/h
123 23-09-2021 12:10:00 12.3 C 10.53 g/m*3 12.3 C 0 km/h
124 23-09-2021 12:15:00 12.7 C 10.8 g/m*3 12.7 C 0 km/h
125 23-09-2021 12:20:00 13.2 C 11.14 g/m*3 13.2 C 0 km/h
Sensor: Nr:Datum:Temp:Abs-Feuchte:Windchill:Wind:
Aussen-T/F 126 23-09-2021 12:25:00 13.6 C 11.53 g/m*3 13.6 C 0 km/h
127 23-09-2021 12:30:00 13.9 C 11.75 g/m*3 13.9 C 0 km/h
128 23-09-2021 12:35:00 14.3 C 11.92 g/m*3 14.3 C 0 km/h
129 23-09-2021 12:40:00 14.4 C 11.99 g/m*3 14.4 C 0 km/h
130 23-09-2021 12:45:00 14.5 C 12.06 g/m*3 14.5 C 1.6 km/h
131 23-09-2021 12:50:00 14.7 C 11.96 g/m*3 14.7 C 3.2 km/h
132 23-09-2021 12:55:00 15 C 12.18 g/m*3 15 C 4.8 km/h
133 23-09-2021 13:00:00 15.2 C 11.94 g/m*3 15.2 C 6.4 km/h
134 23-09-2021 13:05:00 15.5 C 12.16 g/m*3 15.5 C 4.8 km/h
135 23-09-2021 13:10:00 15.8 C 12.25 g/m*3 15.8 C 4.8 km/h
136 23-09-2021 13:15:00 16.1 C 12.06 g/m*3 16.1 C 8.1 km/h
137 23-09-2021 13:20:00 16.4 C 11.86 g/m*3 16.4 C 8.1 km/h
138 23-09-2021 13:25:00 16.8 C 11.87 g/m*3 16.8 C 9.7 km/h
139 23-09-2021 13:30:00 17.2 C 11.72 g/m*3 17.2 C 9.7 km/h
140 23-09-2021 13:35:00 17.6 C 11.85 g/m*3 17.6 C 11.3 km/h
141 23-09-2021 13:40:00 17.9 C 11.6 g/m*3 17.9 C 11.3 km/h
142 23-09-2021 13:45:00 18.3 C 11.73 g/m*3 18.3 C 8.1 km/h
143 23-09-2021 13:50:00 18.6 C 11.94 g/m*3 18.6 C 12.9 km/h
144 23-09-2021 13:55:00 18.7 C 12.49 g/m*3 18.7 C 4.8 km/h
145 23-09-2021 14:00:00 18.8 C 12.08 g/m*3 18.8 C 9.7 km/h
146 23-09-2021 14:05:00 18.8 C 11.92 g/m*3 18.8 C 3.2 km/h
147 23-09-2021 14:10:00 18.8 C 12.24 g/m*3 18.8 C 3.2 km/h
148 23-09-2021 14:15:00 18.9 C 11.99 g/m*3 18.9 C 8.1 km/h
149 23-09-2021 14:20:00 19.1 C 11.8 g/m*3 19.1 C 6.4 km/h
150 23-09-2021 14:25:00 19.3 C 11.94 g/m*3 19.3 C 8.1 km/h
Sensor: Nr:Datum:Temp:Abs-Feuchte:Windchill:Wind:
Aussen-T/F 151 23-09-2021 14:30:00 19.8 C 11.79 g/m*3 19.8 C 9.7 km/h
152 23-09-2021 14:35:00 20.2 C 12.06 g/m*3 20.2 C 9.7 km/h
153 23-09-2021 14:40:00 20.4 C 11.68 g/m*3 20.4 C 12.9 km/h
154 23-09-2021 14:45:00 20.4 C 11.85 g/m*3 20.4 C 9.7 km/h
155 23-09-2021 14:50:00 20.4 C 11.85 g/m*3 20.4 C 3.2 km/h
156 23-09-2021 14:55:00 20.4 C 12.03 g/m*3 20.4 C 9.7 km/h
157 23-09-2021 15:00:00 20.4 C 12.56 g/m*3 20.4 C 4.8 km/h
158 23-09-2021 15:05:00 20.3 C 11.78 g/m*3 20.3 C 9.7 km/h
159 23-09-2021 15:10:00 20.4 C 12.03 g/m*3 20.4 C 11.3 km/h
160 23-09-2021 15:15:00 20.6 C 12.35 g/m*3 20.6 C 9.7 km/h
161 23-09-2021 15:20:00 20.7 C 12.42 g/m*3 20.7 C 12.9 km/h
162 23-09-2021 15:25:00 20.7 C 12.42 g/m*3 20.7 C 9.7 km/h
163 23-09-2021 15:30:00 20.7 C 12.6 g/m*3 20.7 C 4.8 km/h
164 23-09-2021 15:35:00 20.7 C 12.96 g/m*3 20.7 C 8.1 km/h
165 23-09-2021 15:40:00 20.6 C 11.99 g/m*3 20.6 C 11.3 km/h
166 23-09-2021 15:45:00 20.8 C 12.49 g/m*3 20.8 C 9.7 km/h
167 23-09-2021 15:50:00 20.7 C 12.24 g/m*3 20.7 C 9.7 km/h
168 23-09-2021 15:55:00 20.8 C 12.49 g/m*3 20.8 C 6.4 km/h
169 23-09-2021 16:00:00 20.9 C 12.38 g/m*3 20.9 C 16.1 km/h
170 23-09-2021 16:05:00 21 C 12.46 g/m*3 21 C 12.9 km/h
171 23-09-2021 16:10:00 21.2 C 12.42 g/m*3 21.2 C 12.9 km/h
172 23-09-2021 16:15:00 21.3 C 13.05 g/m*3 21.3 C 8.1 km/h
173 23-09-2021 16:20:00 21.3 C 12.86 g/m*3 21.3 C 4.8 km/h
174 23-09-2021 16:25:00 21.2 C 12.6 g/m*3 21.2 C 8.1 km/h
175 23-09-2021 16:30:00 21.3 C 12.3 g/m*3 21.3 C 9.7 km/h
Sensor: Nr:Datum:Temp:Abs-Feuchte:Windchill:Wind:
Aussen-T/F 176 23-09-2021 16:35:00 21.4 C 13.31 g/m*3 21.4 C 3.2 km/h
177 23-09-2021 16:40:00 21.4 C 13.69 g/m*3 21.4 C 11.3 km/h
178 23-09-2021 16:45:00 21.3 C 13.05 g/m*3 21.3 C 3.2 km/h
179 23-09-2021 16:50:00 21.3 C 13.42 g/m*3 21.3 C 6.4 km/h
180 23-09-2021 16:55:00 21.2 C 13.34 g/m*3 21.2 C 8.1 km/h
181 23-09-2021 17:00:00 21.1 C 12.71 g/m*3 21.1 C 6.4 km/h
182 23-09-2021 17:05:00 21.2 C 12.23 g/m*3 21.2 C 8.1 km/h
183 23-09-2021 17:10:00 21.4 C 11.06 g/m*3 21.4 C 11.3 km/h
184 23-09-2021 17:15:00 21.8 C 12.28 g/m*3 21.8 C 12.9 km/h
185 23-09-2021 17:20:00 22.1 C 12.88 g/m*3 22.1 C 4.8 km/h
186 23-09-2021 17:25:00 22.3 C 12.44 g/m*3 22.3 C 6.4 km/h
187 23-09-2021 17:30:00 22.6 C 13.06 g/m*3 22.6 C 6.4 km/h
188 23-09-2021 17:35:00 22.7 C 13.13 g/m*3 22.7 C 6.4 km/h
189 23-09-2021 17:40:00 22.7 C 11.52 g/m*3 22.7 C 6.4 km/h
190 23-09-2021 17:45:00 22.7 C 12.32 g/m*3 22.7 C 4.8 km/h
191 23-09-2021 17:50:00 22.6 C 11.25 g/m*3 22.6 C 11.3 km/h
192 23-09-2021 17:55:00 22.6 C 10.65 g/m*3 22.6 C 11.3 km/h
193 23-09-2021 18:00:00 22.7 C 12.73 g/m*3 22.7 C 4.8 km/h
194 23-09-2021 18:05:00 22.5 C 12.78 g/m*3 22.5 C 3.2 km/h
195 23-09-2021 18:10:00 22.1 C 12.1 g/m*3 22.1 C 0 km/h
196 23-09-2021 18:15:00 21.7 C 12.4 g/m*3 21.7 C 0 km/h
197 23-09-2021 18:20:00 21.3 C 9.51 g/m*3 21.3 C 9.7 km/h
198 23-09-2021 18:25:00 21.3 C 10.07 g/m*3 21.3 C 6.4 km/h
199 23-09-2021 18:30:00 21.3 C 9.13 g/m*3 21.3 C 16.1 km/h
200 23-09-2021 18:35:00 21.4 C 9 g/m*3 21.4 C 14.5 km/h
Sensor: Nr:Datum:Temp:Abs-Feuchte:Windchill:Wind:
Aussen-T/F 201 23-09-2021 18:40:00 21.4 C 9 g/m*3 21.4 C 11.3 km/h
202 23-09-2021 18:45:00 21.3 C 9.32 g/m*3 21.3 C 9.7 km/h
203 23-09-2021 18:50:00 21.3 C 9.32 g/m*3 21.3 C 11.3 km/h
204 23-09-2021 18:55:00 21.2 C 9.08 g/m*3 21.2 C 11.3 km/h
205 23-09-2021 19:00:00 21.1 C 9.03 g/m*3 21.1 C 16.1 km/h
206 23-09-2021 19:05:00 21 C 9.16 g/m*3 21 C 9.7 km/h
207 23-09-2021 19:10:00 20.8 C 9.6 g/m*3 20.8 C 12.9 km/h
208 23-09-2021 19:15:00 20.7 C 10.44 g/m*3 20.7 C 3.2 km/h
209 23-09-2021 19:20:00 20.3 C 10.9 g/m*3 20.3 C 0 km/h
210 23-09-2021 19:25:00 19.7 C 10.7 g/m*3 19.7 C 0 km/h
211 23-09-2021 19:30:00 19 C 10.59 g/m*3 19 C 0 km/h
212 23-09-2021 19:35:00 18.2 C 10.57 g/m*3 18.2 C 0 km/h
213 23-09-2021 19:40:00 17.6 C 10.35 g/m*3 17.6 C 0 km/h
214 23-09-2021 19:45:00 17.3 C 10.31 g/m*3 17.3 C 0 km/h
215 23-09-2021 19:50:00 16.9 C 10.21 g/m*3 16.9 C 0 km/h
216 23-09-2021 19:55:00 16.7 C 10.09 g/m*3 16.7 C 4.8 km/h
217 23-09-2021 20:00:00 16.7 C 9.95 g/m*3 16.7 C 9.7 km/h
218 23-09-2021 20:05:00 17.1 C 10.34 g/m*3 17.1 C 8.1 km/h
219 23-09-2021 20:10:00 17.2 C 10.25 g/m*3 17.2 C 6.4 km/h
220 23-09-2021 20:15:00 17.3 C 10.02 g/m*3 17.3 C 11.3 km/h
221 23-09-2021 20:20:00 17.7 C 10.11 g/m*3 17.7 C 14.5 km/h
222 23-09-2021 20:25:00 18.1 C 10.2 g/m*3 18.1 C 11.3 km/h
223 23-09-2021 20:30:00 18.2 C 10.26 g/m*3 18.2 C 9.7 km/h
224 23-09-2021 20:35:00 18.3 C 10.48 g/m*3 18.3 C 8.1 km/h
225 23-09-2021 20:40:00 18.4 C 10.22 g/m*3 18.4 C 8.1 km/h
Sensor: Nr:Datum:Temp:Abs-Feuchte:Windchill:Wind:
Aussen-T/F 226 23-09-2021 20:45:00 18.4 C 10.7 g/m*3 18.4 C 4.8 km/h
227 23-09-2021 20:50:00 18.4 C 10.54 g/m*3 18.4 C 4.8 km/h
228 23-09-2021 20:55:00 18.3 C 10.63 g/m*3 18.3 C 4.8 km/h
229 23-09-2021 21:00:00 18.2 C 10.57 g/m*3 18.2 C 1.6 km/h
230 23-09-2021 21:05:00 18 C 10.75 g/m*3 18 C 3.2 km/h
231 23-09-2021 21:10:00 17.8 C 10.62 g/m*3 17.8 C 6.4 km/h
232 23-09-2021 21:15:00 17.6 C 10.5 g/m*3 17.6 C 3.2 km/h
233 23-09-2021 21:20:00 17.4 C 10.67 g/m*3 17.4 C 1.6 km/h
234 23-09-2021 21:25:00 17.2 C 10.69 g/m*3 17.2 C 3.2 km/h
235 23-09-2021 21:30:00 17 C 10.56 g/m*3 17 C 4.8 km/h
236 23-09-2021 21:35:00 16.8 C 10.58 g/m*3 16.8 C 3.2 km/h
237 23-09-2021 21:40:00 16.7 C 10.66 g/m*3 16.7 C 4.8 km/h
238 23-09-2021 21:45:00 16.4 C 10.61 g/m*3 16.4 C 1.6 km/h
239 23-09-2021 21:50:00 16.3 C 10.54 g/m*3 16.3 C 3.2 km/h
240 23-09-2021 21:55:00 16.2 C 10.62 g/m*3 16.2 C 3.2 km/h
241 23-09-2021 22:00:00 16.1 C 10.55 g/m*3 16.1 C 4.8 km/h
242 23-09-2021 22:05:00 16.1 C 10.55 g/m*3 16.1 C 4.8 km/h
243 23-09-2021 22:10:00 16.1 C 10.69 g/m*3 16.1 C 4.8 km/h
244 23-09-2021 22:15:00 16 C 10.63 g/m*3 16 C 0 km/h
245 23-09-2021 22:20:00 15.9 C 10.56 g/m*3 15.9 C 1.6 km/h
246 23-09-2021 22:25:00 15.8 C 10.63 g/m*3 15.8 C 6.4 km/h
247 23-09-2021 22:30:00 15.8 C 10.63 g/m*3 15.8 C 4.8 km/h
248 23-09-2021 22:35:00 15.7 C 10.7 g/m*3 15.7 C 4.8 km/h
249 23-09-2021 22:40:00 15.7 C 10.7 g/m*3 15.7 C 3.2 km/h
250 23-09-2021 22:45:00 15.7 C 10.7 g/m*3 15.7 C 4.8 km/h
Sensor: Nr:Datum:Temp:Abs-Feuchte:Windchill:Wind:
Aussen-T/F 251 23-09-2021 22:50:00 15.6 C 10.64 g/m*3 15.6 C 4.8 km/h
252 23-09-2021 22:55:00 15.6 C 10.64 g/m*3 15.6 C 6.4 km/h
253 23-09-2021 23:00:00 15.5 C 10.71 g/m*3 15.5 C 4.8 km/h
254 23-09-2021 23:05:00 15.4 C 10.64 g/m*3 15.4 C 6.4 km/h
255 23-09-2021 23:10:00 15.4 C 10.64 g/m*3 15.4 C 4.8 km/h
256 23-09-2021 23:15:00 15.3 C 10.71 g/m*3 15.3 C 3.2 km/h
257 23-09-2021 23:20:00 15.3 C 10.71 g/m*3 15.3 C 4.8 km/h
258 23-09-2021 23:25:00 15.2 C 10.64 g/m*3 15.2 C 0 km/h
259 23-09-2021 23:30:00 15.2 C 10.77 g/m*3 15.2 C 1.6 km/h
260 23-09-2021 23:35:00 15.2 C 10.77 g/m*3 15.2 C 0 km/h
261 23-09-2021 23:40:00 15.1 C 10.84 g/m*3 15.1 C 1.6 km/h
262 23-09-2021 23:45:00 15 C 10.77 g/m*3 15 C 0 km/h
263 23-09-2021 23:50:00 14.8 C 10.64 g/m*3 14.8 C 1.6 km/h
264 23-09-2021 23:55:00 14.8 C 10.64 g/m*3 14.8 C 0 km/h
265 24-09-2021 00:00:00 14.7 C 10.7 g/m*3 14.7 C 0 km/h
266 24-09-2021 00:05:00 14.6 C 10.64 g/m*3 14.6 C 1.6 km/h
267 24-09-2021 00:10:00 14.6 C 10.76 g/m*3 14.6 C 1.6 km/h
268 24-09-2021 00:15:00 14.6 C 10.76 g/m*3 14.6 C 3.2 km/h
269 24-09-2021 00:20:00 14.7 C 10.83 g/m*3 14.7 C 3.2 km/h
270 24-09-2021 00:25:00 14.7 C 10.83 g/m*3 14.7 C 1.6 km/h
271 24-09-2021 00:30:00 14.9 C 10.71 g/m*3 14.9 C 8.1 km/h
272 24-09-2021 00:35:00 15.1 C 10.84 g/m*3 15.1 C 3.2 km/h
273 24-09-2021 00:40:00 15.2 C 10.77 g/m*3 15.2 C 1.6 km/h
274 24-09-2021 00:45:00 15.2 C 10.77 g/m*3 15.2 C 3.2 km/h
275 24-09-2021 00:50:00 15.3 C 10.84 g/m*3 15.3 C 4.8 km/h
Sensor: Nr:Datum:Temp:Abs-Feuchte:Windchill:Wind:
Aussen-T/F 276 24-09-2021 00:55:00 15.3 C 10.84 g/m*3 15.3 C 3.2 km/h
277 24-09-2021 01:00:00 15.3 C 10.84 g/m*3 15.3 C 4.8 km/h
278 24-09-2021 01:05:00 15.3 C 10.84 g/m*3 15.3 C 4.8 km/h
279 24-09-2021 01:10:00 15.3 C 10.71 g/m*3 15.3 C 3.2 km/h
280 24-09-2021 01:15:00 15.3 C 10.71 g/m*3 15.3 C 6.4 km/h
281 24-09-2021 01:20:00 15.3 C 10.71 g/m*3 15.3 C 6.4 km/h

Legende:
   Min
   Max


Maximal/Minimal-Werte vom 23.09.2021 - 24.09.2021

Sensor Min Max Avg
Temp
(Aussen-T/F)
7.2 °C
23-09-2021  05:00:00
22.7 °C
23-09-2021  17:35:00
13.92 °C
Abs-Feuchte
(Aussen-T/F)
7.46 g/m*3
23-09-2021  05:00:00
13.69 g/m*3
23-09-2021  16:40:00
9.88 g/m*3
Windchill
(Aussen-T/F)
7.2 C
23-09-2021  05:00:00
22.7 C
23-09-2021  17:35:00
13.87 C

Die Daten stammen von einer Davis Vantage Pro 2 Wetter-Station und werden unter Linux mit der Software wview2wettercgi und aufbereitet. Alle Angaben erfolgen ohne Gewähr für ihre Vollständigkeit oder Richtigkeit.
Kontakt: Rainer Krienke krienke@uni-koblenz.de . Meine Webseiten an der Uni Koblenz oder privat.
Version: $Revision: 0.78 $